createdAt,value
2023-04-02T00:05:17.240Z,1612
2023-04-02T00:25:25.294Z,1618
2023-04-02T00:45:33.640Z,1612
2023-04-02T01:25:17.506Z,1605
2023-04-02T01:45:25.571Z,1596
2023-04-02T02:05:33.933Z,1598
2023-04-02T02:45:17.749Z,1546
2023-04-02T03:25:25.972Z,1559
2023-04-02T03:45:17.978Z,1558
2023-04-02T04:05:18.052Z,1557
2023-04-02T04:25:34.510Z,1537
2023-04-02T04:45:34.335Z,1543
2023-04-02T05:05:18.364Z,1532
2023-04-02T05:25:18.324Z,1505
2023-04-02T05:45:34.567Z,1507
2023-04-02T06:05:18.476Z,1491
2023-04-02T06:45:18.595Z,1489
2023-04-02T07:05:26.729Z,1489
2023-04-02T07:25:18.754Z,1482
2023-04-02T08:05:18.875Z,1474
2023-04-02T08:45:26.270Z,1465
2023-04-02T09:05:19.089Z,1451
2023-04-02T10:05:39.209Z,1445
2023-04-02T10:25:19.396Z,1438
2023-04-02T10:45:35.536Z,1444
2023-04-02T11:05:18.761Z,1440
2023-04-02T12:05:36.008Z,1414
2023-04-02T12:25:27.756Z,1416
2023-04-02T12:45:19.816Z,1412
2023-04-02T13:05:19.908Z,1410
2023-04-02T13:25:20.038Z,1401
2023-04-02T13:45:20.053Z,1399
2023-04-02T14:05:20.083Z,1391
2023-04-02T14:25:28.263Z,1393
2023-04-02T15:05:28.324Z,1382
2023-04-02T15:45:20.426Z,1372
2023-04-02T16:05:28.504Z,1365
2023-04-02T16:25:28.581Z,1368
2023-04-02T16:45:27.850Z,1370
2023-04-02T17:05:20.705Z,1368
2023-04-02T17:25:20.753Z,1364
2023-04-02T17:45:20.882Z,1363
2023-04-02T18:05:36.894Z,1360
2023-04-02T18:25:36.968Z,1357
2023-04-02T18:45:21.049Z,1352
2023-04-02T19:05:21.095Z,1344
2023-04-02T19:25:29.202Z,1346
2023-04-02T19:45:21.277Z,1343
2023-04-02T20:05:21.340Z,1334
2023-04-02T20:25:21.424Z,1333
2023-04-02T20:45:21.461Z,1326
2023-04-02T21:05:21.570Z,1326
2023-04-02T21:25:21.841Z,1320
2023-04-02T22:05:21.802Z,1311
2023-04-02T22:25:21.896Z,1314
2023-04-02T22:45:29.959Z,1310
2023-04-02T23:05:22.071Z,1309
2023-04-02T23:25:22.116Z,1296
2023-04-02T23:45:22.205Z,1301
